createdAt,value
2019-03-27T00:02:18.679Z,3.44
2019-03-27T00:05:06.904Z,3.26
2019-03-27T00:07:55.201Z,3.27
2019-03-27T00:10:43.324Z,3.37
2019-03-27T00:13:31.218Z,3.36
2019-03-27T00:16:19.348Z,3.24
2019-03-27T00:19:07.254Z,3.20
2019-03-27T00:21:54.992Z,3.17
2019-03-27T00:24:43.010Z,3.10
2019-03-27T00:27:31.064Z,3.02
2019-03-27T00:30:19.336Z,3.05
2019-03-27T00:33:08.073Z,2.96
2019-03-27T00:35:56.702Z,3.08
2019-03-27T00:38:45.156Z,2.98
2019-03-27T00:41:33.157Z,2.94
2019-03-27T00:44:21.521Z,2.97
2019-03-27T00:47:09.509Z,2.87
2019-03-27T00:49:57.518Z,2.85
2019-03-27T00:52:45.694Z,2.81
2019-03-27T00:55:33.774Z,2.76
2019-03-27T00:58:21.966Z,2.74
2019-03-27T01:01:12.463Z,2.57
2019-03-27T01:04:00.776Z,2.64
2019-03-27T01:06:50.910Z,2.70
2019-03-27T01:09:38.742Z,2.72
2019-03-27T01:12:26.609Z,2.71
2019-03-27T01:15:15.065Z,2.70
2019-03-27T01:18:03.167Z,2.74
2019-03-27T01:20:51.375Z,2.74
2019-03-27T01:23:39.394Z,2.76
2019-03-27T01:26:27.638Z,2.63
2019-03-27T01:29:15.745Z,2.70
2019-03-27T01:32:03.776Z,2.68
2019-03-27T01:34:51.710Z,2.71
2019-03-27T01:37:39.426Z,2.71
2019-03-27T01:40:27.696Z,2.64
2019-03-27T01:43:15.662Z,2.60
2019-03-27T01:46:03.966Z,2.61
2019-03-27T01:48:52.045Z,2.51
2019-03-27T01:51:40.091Z,2.52
2019-03-27T01:54:27.961Z,2.54
2019-03-27T01:57:15.931Z,2.53
2019-03-27T02:00:04.466Z,2.49
2019-03-27T02:02:52.635Z,2.46
2019-03-27T02:05:40.664Z,2.57
2019-03-27T02:08:28.785Z,2.62
2019-03-27T02:11:17.102Z,2.54
2019-03-27T02:14:05.148Z,2.53
2019-03-27T02:16:52.949Z,2.51
2019-03-27T02:19:41.302Z,2.51
2019-03-27T02:22:29.506Z,2.51
2019-03-27T02:25:17.641Z,2.60
2019-03-27T02:28:05.527Z,2.61
2019-03-27T02:30:54.067Z,2.54
2019-03-27T02:33:42.516Z,2.55
2019-03-27T02:36:30.989Z,2.48
2019-03-27T02:39:19.066Z,2.51
2019-03-27T02:42:07.422Z,2.47
2019-03-27T02:44:55.985Z,2.38
2019-03-27T02:47:44.188Z,2.23
2019-03-27T02:50:32.300Z,2.37
2019-03-27T02:53:20.631Z,2.36
2019-03-27T02:56:08.691Z,2.36
2019-03-27T02:58:56.686Z,2.31
2019-03-27T03:01:47.831Z,2.39
2019-03-27T03:04:34.639Z,2.23
2019-03-27T03:07:22.489Z,2.39
2019-03-27T03:10:11.430Z,2.33
2019-03-27T03:12:59.539Z,2.16
2019-03-27T03:15:47.695Z,2.33
2019-03-27T03:18:35.880Z,2.36
2019-03-27T03:21:24.108Z,2.27
2019-03-27T03:24:12.155Z,2.25
2019-03-27T03:27:00.347Z,2.20
2019-03-27T03:29:48.740Z,2.35
2019-03-27T03:32:37.024Z,2.36
2019-03-27T03:35:25.243Z,2.35
2019-03-27T03:38:13.241Z,2.25
2019-03-27T03:41:02.609Z,2.16
2019-03-27T03:43:50.826Z,2.08
2019-03-27T03:46:39.065Z,2.16
2019-03-27T03:49:27.140Z,2.15
2019-03-27T03:52:15.813Z,2.26
2019-03-27T03:55:04.714Z,2.15
2019-03-27T03:57:52.400Z,2.13
2019-03-27T04:00:40.617Z,2.12
2019-03-27T04:03:30.471Z,2.00
2019-03-27T04:06:18.636Z,2.10
2019-03-27T04:09:07.163Z,2.13
2019-03-27T04:11:55.063Z,2.21
2019-03-27T04:14:42.990Z,2.10
2019-03-27T04:17:30.884Z,1.93
2019-03-27T04:20:19.390Z,2.11
2019-03-27T04:23:07.056Z,2.01
2019-03-27T04:26:09.066Z,1.88
2019-03-27T04:28:44.783Z,2.21
2019-03-27T04:31:33.090Z,2.14
2019-03-27T04:34:20.832Z,2.20
2019-03-27T04:37:08.803Z,2.16
2019-03-27T04:39:57.306Z,2.14
2019-03-27T04:42:45.357Z,2.07
2019-03-27T04:45:33.096Z,2.01
2019-03-27T04:48:21.631Z,1.96
2019-03-27T04:51:09.997Z,1.97
2019-03-27T04:53:58.088Z,2.06
2019-03-27T04:56:46.044Z,1.97
2019-03-27T04:59:34.117Z,1.99
2019-03-27T05:02:21.801Z,1.96
2019-03-27T05:05:09.967Z,1.95
2019-03-27T05:07:58.554Z,1.90
2019-03-27T05:10:46.510Z,2.03
2019-03-27T05:13:34.635Z,1.96
2019-03-27T05:16:22.822Z,1.76
2019-03-27T05:19:11.358Z,1.92
2019-03-27T05:21:59.629Z,1.82
2019-03-27T05:24:47.877Z,1.97
2019-03-27T05:27:36.618Z,1.92
2019-03-27T05:30:31.178Z,2.07
2019-03-27T05:33:19.386Z,2.05
2019-03-27T05:36:07.630Z,1.93
2019-03-27T05:38:55.606Z,2.05
2019-03-27T05:41:43.869Z,1.98
2019-03-27T05:44:32.047Z,2.14
2019-03-27T05:47:20.104Z,2.25
2019-03-27T05:50:08.164Z,2.21
2019-03-27T05:52:56.214Z,2.22
2019-03-27T05:55:44.315Z,2.56
2019-03-27T05:58:33.009Z,2.83
2019-03-27T06:01:21.266Z,3.11
2019-03-27T06:04:09.338Z,3.21
2019-03-27T06:06:57.602Z,3.22
2019-03-27T06:09:45.609Z,3.52
2019-03-27T06:12:34.130Z,3.52
2019-03-27T06:15:22.627Z,3.54
2019-03-27T06:18:13.327Z,3.27
2019-03-27T06:21:00.608Z,3.40
2019-03-27T06:23:48.884Z,3.58
2019-03-27T06:26:37.592Z,4.05
2019-03-27T06:29:25.392Z,3.82
2019-03-27T06:32:13.036Z,3.90
2019-03-27T06:35:01.421Z,3.88
2019-03-27T06:37:50.116Z,4.21
2019-03-27T06:40:39.827Z,4.22
2019-03-27T06:43:28.014Z,4.33
2019-03-27T06:46:16.071Z,4.44
2019-03-27T06:49:04.304Z,4.53
2019-03-27T06:51:52.536Z,4.34
2019-03-27T06:54:40.782Z,4.63
2019-03-27T06:57:28.978Z,4.66
2019-03-27T07:00:17.422Z,4.75
2019-03-27T07:03:07.009Z,4.66
2019-03-27T07:05:55.216Z,4.56
2019-03-27T07:08:43.057Z,4.82
2019-03-27T07:11:31.574Z,5.41
2019-03-27T07:14:19.680Z,5.65
2019-03-27T07:17:08.143Z,6.27
2019-03-27T07:19:56.957Z,6.73
2019-03-27T07:22:45.166Z,6.53
2019-03-27T07:25:33.013Z,6.15
2019-03-27T07:28:21.338Z,6.56
2019-03-27T07:31:09.507Z,7.95
2019-03-27T07:33:57.825Z,8.04
2019-03-27T07:36:45.596Z,7.47
2019-03-27T07:39:33.789Z,6.76
2019-03-27T07:42:21.900Z,6.50
2019-03-27T07:45:10.049Z,6.95
2019-03-27T07:47:58.147Z,7.25
2019-03-27T07:50:46.905Z,6.92
2019-03-27T07:53:35.082Z,7.08
2019-03-27T07:56:23.362Z,6.58
2019-03-27T07:59:11.642Z,6.14
2019-03-27T08:01:59.980Z,6.57
2019-03-27T08:04:48.700Z,7.20
2019-03-27T08:07:36.560Z,7.35
2019-03-27T08:10:25.405Z,7.67
2019-03-27T08:13:13.757Z,7.49
2019-03-27T08:16:02.033Z,7.24
2019-03-27T08:18:50.138Z,7.17
2019-03-27T08:21:38.057Z,7.18
2019-03-27T08:24:26.107Z,7.47
2019-03-27T08:27:14.674Z,7.14
2019-03-27T08:30:03.197Z,7.27
2019-03-27T08:32:50.936Z,7.54
2019-03-27T08:35:39.279Z,7.50
2019-03-27T08:38:27.239Z,7.02
2019-03-27T08:41:15.566Z,6.89
2019-03-27T08:44:03.381Z,7.33
2019-03-27T08:46:51.649Z,7.41
2019-03-27T08:49:40.077Z,6.58
2019-03-27T08:52:28.710Z,6.67
2019-03-27T08:55:17.084Z,7.55
2019-03-27T08:58:05.433Z,7.53
2019-03-27T09:00:54.406Z,7.18
2019-03-27T09:03:42.758Z,6.75
2019-03-27T09:06:33.851Z,6.81
2019-03-27T09:09:20.958Z,6.84
2019-03-27T09:12:08.870Z,6.65
2019-03-27T09:14:57.073Z,6.85
2019-03-27T09:17:45.103Z,7.23
2019-03-27T09:20:33.040Z,7.39
2019-03-27T09:23:21.270Z,7.62
2019-03-27T09:26:09.399Z,7.66
2019-03-27T09:28:57.587Z,7.39
2019-03-27T09:31:45.743Z,7.37
2019-03-27T09:34:34.265Z,7.56
2019-03-27T09:37:22.283Z,7.54
2019-03-27T09:40:11.482Z,7.55
2019-03-27T09:42:59.896Z,7.74
2019-03-27T09:45:47.729Z,7.73
2019-03-27T09:48:35.870Z,7.86
2019-03-27T09:51:24.421Z,8.19
2019-03-27T09:54:12.976Z,8.07
2019-03-27T09:57:01.899Z,8.08
2019-03-27T09:59:49.581Z,8.05
2019-03-27T10:02:37.603Z,7.81
2019-03-27T10:05:25.618Z,8.10
2019-03-27T10:08:13.960Z,8.48
2019-03-27T10:11:01.926Z,8.60
2019-03-27T10:13:50.227Z,8.58
2019-03-27T10:16:38.007Z,8.65
2019-03-27T10:19:26.430Z,8.65
2019-03-27T10:22:15.135Z,8.96
2019-03-27T10:25:03.631Z,8.94
2019-03-27T10:27:51.800Z,9.12
2019-03-27T10:30:39.842Z,9.32
2019-03-27T10:33:28.376Z,9.51
2019-03-27T10:36:16.653Z,9.24
2019-03-27T10:39:06.668Z,9.03
2019-03-27T10:41:54.740Z,9.16
2019-03-27T10:44:43.134Z,9.18
2019-03-27T10:47:31.296Z,8.98
2019-03-27T10:50:19.421Z,9.07
2019-03-27T10:53:07.895Z,9.13
2019-03-27T10:55:55.885Z,9.41
2019-03-27T10:58:43.916Z,9.67
2019-03-27T11:01:32.334Z,9.57
2019-03-27T11:04:20.258Z,9.22
2019-03-27T11:07:08.846Z,9.44
2019-03-27T11:09:56.790Z,9.31
2019-03-27T11:12:44.655Z,9.57
2019-03-27T11:15:32.790Z,9.86
2019-03-27T11:18:20.975Z,9.51
2019-03-27T11:21:09.357Z,9.70
2019-03-27T11:23:57.391Z,9.92
2019-03-27T11:26:45.646Z,9.88
2019-03-27T11:29:34.053Z,10.05
2019-03-27T11:32:22.840Z,9.88
2019-03-27T11:35:10.969Z,9.89
2019-03-27T11:37:59.129Z,10.02
2019-03-27T11:40:47.233Z,9.74
2019-03-27T11:43:35.156Z,10.11
2019-03-27T11:46:23.414Z,10.42
2019-03-27T11:49:11.467Z,10.35
2019-03-27T11:51:59.740Z,10.25
2019-03-27T11:54:47.890Z,10.30
2019-03-27T11:57:35.705Z,10.78
2019-03-27T12:00:23.881Z,10.44
2019-03-27T12:03:11.871Z,10.72
2019-03-27T12:05:59.798Z,10.54
2019-03-27T12:08:50.639Z,10.83
2019-03-27T12:11:38.070Z,11.07
2019-03-27T12:14:26.303Z,10.88
2019-03-27T12:17:14.551Z,10.85
2019-03-27T12:20:02.551Z,10.78
2019-03-27T12:22:57.676Z,11.04
2019-03-27T12:25:40.067Z,11.28
2019-03-27T12:28:27.995Z,11.37
2019-03-27T12:31:15.790Z,11.21
2019-03-27T12:34:04.228Z,11.36
2019-03-27T12:36:52.591Z,11.88
2019-03-27T12:39:41.231Z,11.64
2019-03-27T12:42:29.848Z,11.39
2019-03-27T12:45:18.030Z,11.00
2019-03-27T12:48:07.055Z,10.36
2019-03-27T12:50:55.082Z,10.55
2019-03-27T12:53:43.461Z,10.63
2019-03-27T12:56:31.203Z,10.74
2019-03-27T12:59:19.651Z,10.27
2019-03-27T13:02:08.235Z,10.50
2019-03-27T13:04:56.308Z,10.44
2019-03-27T13:07:49.949Z,10.75
2019-03-27T13:10:34.092Z,10.30
2019-03-27T13:13:21.899Z,10.41
2019-03-27T13:16:10.073Z,10.55
2019-03-27T13:18:58.075Z,11.05
2019-03-27T13:21:46.240Z,11.47
2019-03-27T13:24:34.572Z,11.83
2019-03-27T13:27:23.014Z,11.51
2019-03-27T13:30:11.930Z,11.21
2019-03-27T13:32:59.835Z,10.22
2019-03-27T13:35:48.048Z,10.07
2019-03-27T13:38:36.189Z,10.07
2019-03-27T13:41:24.491Z,10.23
2019-03-27T13:44:12.491Z,10.34
2019-03-27T13:47:00.977Z,10.53
2019-03-27T13:49:49.314Z,10.63
2019-03-27T13:52:37.326Z,10.10
2019-03-27T13:55:25.982Z,10.25
2019-03-27T13:58:14.158Z,10.31
2019-03-27T14:01:02.296Z,10.08
2019-03-27T14:03:50.633Z,9.88
2019-03-27T14:06:39.062Z,9.86
2019-03-27T14:09:27.207Z,9.99
2019-03-27T14:12:15.939Z,10.21
2019-03-27T14:15:04.976Z,10.55
2019-03-27T14:17:53.372Z,10.49
2019-03-27T14:20:41.779Z,10.36
2019-03-27T14:23:29.844Z,10.19
2019-03-27T14:26:18.459Z,10.19
2019-03-27T14:29:08.111Z,10.20
2019-03-27T14:31:55.727Z,10.14
2019-03-27T14:34:43.802Z,10.15
2019-03-27T14:37:31.495Z,10.36
2019-03-27T14:40:19.461Z,10.12
2019-03-27T14:43:07.432Z,10.34
2019-03-27T14:45:55.745Z,10.65
2019-03-27T14:48:44.075Z,10.25
2019-03-27T14:51:32.465Z,10.26
2019-03-27T14:54:20.954Z,10.13
2019-03-27T14:57:09.204Z,10.03
2019-03-27T14:59:57.440Z,9.61
2019-03-27T15:02:45.850Z,9.89
2019-03-27T15:05:33.924Z,10.14
2019-03-27T15:08:22.424Z,10.44
2019-03-27T15:11:10.469Z,10.59
2019-03-27T15:13:58.480Z,10.23
2019-03-27T15:16:46.424Z,10.37
2019-03-27T15:19:34.457Z,10.43
2019-03-27T15:22:22.994Z,10.16
2019-03-27T15:25:11.063Z,10.21
2019-03-27T15:27:59.166Z,10.48
2019-03-27T15:30:47.160Z,10.58
2019-03-27T15:33:35.392Z,10.50
2019-03-27T15:36:24.274Z,10.45
2019-03-27T15:39:12.702Z,10.01
2019-03-27T15:42:00.979Z,9.94
2019-03-27T15:44:50.008Z,10.15
2019-03-27T15:47:38.446Z,10.17
2019-03-27T15:50:26.800Z,10.26
2019-03-27T15:53:14.966Z,10.14
2019-03-27T15:56:02.895Z,10.05
2019-03-27T15:58:51.299Z,9.98
2019-03-27T16:01:39.751Z,9.73
2019-03-27T16:04:28.571Z,9.55
2019-03-27T16:07:16.269Z,9.56
2019-03-27T16:10:05.157Z,9.55
2019-03-27T16:12:53.184Z,9.65
2019-03-27T16:15:41.324Z,9.66
2019-03-27T16:18:29.018Z,9.73
2019-03-27T16:21:17.335Z,9.62
2019-03-27T16:24:06.829Z,9.43
2019-03-27T16:27:04.326Z,9.35
2019-03-27T16:29:45.093Z,9.41
2019-03-27T16:32:33.279Z,9.50
2019-03-27T16:35:21.591Z,9.69
2019-03-27T16:38:10.038Z,9.80
2019-03-27T16:40:58.101Z,9.85
2019-03-27T16:43:46.833Z,9.49
2019-03-27T16:46:34.820Z,9.43
2019-03-27T16:49:22.889Z,9.32
2019-03-27T16:52:11.133Z,9.33
2019-03-27T16:54:59.249Z,9.15
2019-03-27T16:57:47.310Z,9.18
2019-03-27T17:00:35.687Z,9.24
2019-03-27T17:03:23.982Z,9.19
2019-03-27T17:06:11.666Z,9.19
2019-03-27T17:08:59.279Z,9.11
2019-03-27T17:11:47.627Z,9.03
2019-03-27T17:14:36.077Z,9.05
2019-03-27T17:17:24.275Z,9.08
2019-03-27T17:20:12.854Z,9.00
2019-03-27T17:23:00.875Z,9.04
2019-03-27T17:25:48.978Z,9.11
2019-03-27T17:28:37.320Z,8.96
2019-03-27T17:31:25.424Z,8.71
2019-03-27T17:34:14.009Z,8.53
2019-03-27T17:37:01.969Z,8.55
2019-03-27T17:39:50.178Z,8.33
2019-03-27T17:42:38.383Z,8.27
2019-03-27T17:45:26.626Z,8.35
2019-03-27T17:48:14.865Z,8.27
2019-03-27T17:51:03.349Z,8.29
2019-03-27T17:53:51.866Z,8.22
2019-03-27T17:56:40.229Z,8.22
2019-03-27T17:59:28.461Z,8.01
2019-03-27T18:02:16.600Z,8.15
2019-03-27T18:05:05.086Z,8.05
2019-03-27T18:07:53.272Z,8.01
2019-03-27T18:10:41.284Z,7.99
2019-03-27T18:13:29.399Z,7.89
2019-03-27T18:16:17.521Z,7.97
2019-03-27T18:19:06.097Z,7.82
2019-03-27T18:22:06.674Z,7.82
2019-03-27T18:24:43.833Z,7.76
2019-03-27T18:27:31.444Z,7.74
2019-03-27T18:30:19.510Z,7.73
2019-03-27T18:33:07.716Z,7.76
2019-03-27T18:35:55.764Z,7.77
2019-03-27T18:38:45.894Z,7.63
2019-03-27T18:41:33.149Z,7.66
2019-03-27T18:44:20.911Z,7.38
2019-03-27T18:47:09.278Z,7.50
2019-03-27T18:49:57.534Z,7.43
2019-03-27T18:52:45.847Z,7.50
2019-03-27T18:55:34.222Z,7.45
2019-03-27T18:58:22.180Z,7.45
2019-03-27T19:01:10.162Z,7.34
2019-03-27T19:03:58.051Z,7.36
2019-03-27T19:06:46.409Z,7.37
2019-03-27T19:09:34.761Z,7.31
2019-03-27T19:12:23.091Z,7.25
2019-03-27T19:15:11.382Z,7.16
2019-03-27T19:18:00.442Z,7.05
2019-03-27T19:20:48.624Z,6.85
2019-03-27T19:23:36.711Z,6.93
2019-03-27T19:26:25.184Z,6.91
2019-03-27T19:29:13.728Z,6.75
2019-03-27T19:32:02.506Z,6.81
2019-03-27T19:34:51.306Z,6.84
2019-03-27T19:37:39.815Z,6.70
2019-03-27T19:40:28.065Z,6.74
2019-03-27T19:43:15.993Z,6.67
2019-03-27T19:46:04.514Z,6.73
2019-03-27T19:48:52.846Z,6.73
2019-03-27T19:51:41.282Z,6.61
2019-03-27T19:54:29.416Z,6.54
2019-03-27T19:57:17.661Z,6.46
2019-03-27T20:00:07.664Z,6.55
2019-03-27T20:02:55.714Z,6.48
2019-03-27T20:05:43.988Z,6.37
2019-03-27T20:08:31.986Z,6.33
2019-03-27T20:11:20.217Z,6.26
2019-03-27T20:14:08.241Z,6.23
2019-03-27T20:16:56.517Z,6.24
2019-03-27T20:19:44.812Z,6.12
2019-03-27T20:22:32.609Z,6.17
2019-03-27T20:25:20.889Z,6.11
2019-03-27T20:28:09.288Z,6.06
2019-03-27T20:30:57.520Z,6.06
2019-03-27T20:33:46.085Z,6.04
2019-03-27T20:36:34.616Z,5.87
2019-03-27T20:39:22.432Z,5.94
2019-03-27T20:42:10.469Z,5.93
2019-03-27T20:44:58.563Z,5.80
2019-03-27T20:47:46.382Z,5.86
2019-03-27T20:50:34.662Z,5.76
2019-03-27T20:53:22.727Z,5.77
2019-03-27T20:56:11.019Z,5.63
2019-03-27T20:59:01.497Z,5.62
2019-03-27T21:01:50.157Z,5.68
2019-03-27T21:04:38.172Z,5.58
2019-03-27T21:07:25.960Z,5.55
2019-03-27T21:10:14.477Z,5.60
2019-03-27T21:13:02.692Z,5.49
2019-03-27T21:15:50.740Z,5.44
2019-03-27T21:18:38.734Z,5.50
2019-03-27T21:21:27.134Z,5.48
2019-03-27T21:24:15.320Z,5.45
2019-03-27T21:27:03.229Z,5.43
2019-03-27T21:29:51.436Z,5.34
2019-03-27T21:32:39.610Z,5.31
2019-03-27T21:35:27.679Z,5.41
2019-03-27T21:38:15.663Z,5.26
2019-03-27T21:41:03.932Z,5.28
2019-03-27T21:43:52.000Z,5.13
2019-03-27T21:46:40.341Z,5.29
2019-03-27T21:49:28.829Z,5.22
2019-03-27T21:52:16.909Z,5.15
2019-03-27T21:55:05.120Z,5.17
2019-03-27T21:57:53.296Z,5.11
2019-03-27T22:00:41.884Z,5.17
2019-03-27T22:03:29.892Z,5.10
2019-03-27T22:06:17.878Z,5.12
2019-03-27T22:09:07.329Z,5.03
2019-03-27T22:11:55.612Z,5.01
2019-03-27T22:14:44.015Z,5.12
2019-03-27T22:17:31.990Z,4.89
2019-03-27T22:20:19.729Z,5.00
2019-03-27T22:23:07.892Z,4.80
2019-03-27T22:25:56.316Z,4.87
2019-03-27T22:28:44.680Z,4.83
2019-03-27T22:31:33.083Z,4.89
2019-03-27T22:34:21.082Z,4.83
2019-03-27T22:37:09.262Z,4.66
2019-03-27T22:39:57.569Z,4.79
2019-03-27T22:42:45.736Z,4.70
2019-03-27T22:45:34.104Z,4.66
2019-03-27T22:48:22.227Z,4.54
2019-03-27T22:51:09.868Z,4.67
2019-03-27T22:53:57.894Z,4.67
2019-03-27T22:56:46.215Z,4.58
2019-03-27T22:59:34.466Z,4.61
2019-03-27T23:02:22.711Z,4.44
2019-03-27T23:05:10.876Z,4.61
2019-03-27T23:07:59.325Z,4.61
2019-03-27T23:10:47.607Z,4.44
2019-03-27T23:13:36.189Z,4.46
2019-03-27T23:16:24.592Z,4.40
2019-03-27T23:19:12.891Z,4.53
2019-03-27T23:22:00.958Z,4.61
2019-03-27T23:24:48.806Z,4.58
2019-03-27T23:27:37.422Z,4.56
2019-03-27T23:30:25.574Z,4.59
2019-03-27T23:33:14.008Z,4.59
2019-03-27T23:36:01.784Z,4.55
2019-03-27T23:38:50.529Z,4.45
2019-03-27T23:41:38.765Z,4.44
2019-03-27T23:44:26.666Z,4.47
2019-03-27T23:47:14.598Z,4.30
2019-03-27T23:50:03.034Z,4.51
2019-03-27T23:52:51.188Z,4.47
2019-03-27T23:55:39.105Z,4.28
2019-03-27T23:58:27.074Z,4.48
